Wetterdaten: Woche 31.05.10 - 06.06.10 (KW22)
Datum Zeit Temp. A. Feuchte A. Luftdruck Regen Wind Richtung Taupunkt Windchill Windben
31.05.2010 00:00 15,2 C 68 % 1006,0 hPa 0,0 l/m 3,5 km/h NW 9,2 C 15,2 C 16,5 km/h
31.05.2010 01:00 14,8 C 70 % 1005,7 hPa 0,0 l/m 3,6 km/h SW 9,3 C 14,8 C 17,7 km/h
31.05.2010 02:00 14,7 C 70 % 1004,9 hPa 0,0 l/m 3,6 km/h S 9,1 C 14,7 C 15,7 km/h
31.05.2010 03:00 14,5 C 69 % 1004,1 hPa 0,0 l/m 4,2 km/h W-SW 8,9 C 14,5 C 18,1 km/h
31.05.2010 04:00 14,3 C 70 % 1003,6 hPa 0,0 l/m 4,3 km/h S-SW 8,9 C 14,3 C 22,5 km/h
31.05.2010 05:00 14,1 C 70 % 1003,3 hPa 0,0 l/m 3,7 km/h S 8,8 C 14,1 C 16,5 km/h
31.05.2010 06:00 14,1 C 72 % 1003,6 hPa 0,0 l/m 5,2 km/h S-SW 9,2 C 14,1 C 19,3 km/h
31.05.2010 07:00 13,4 C 75 % 1004,6 hPa 0,3 l/m 8,0 km/h N-NW 9,0 C 12,5 C 27,8 km/h
31.05.2010 08:00 11,9 C 80 % 1006,0 hPa 0,3 l/m 6,6 km/h S-SW 8,4 C 11,5 C 22,9 km/h
31.05.2010 09:00 11,9 C 77 % 1006,1 hPa 0,0 l/m 7,8 km/h SO 7,9 C 11,0 C 27,4 km/h
31.05.2010 10:00 11,3 C 81 % 1007,0 hPa 0,3 l/m 6,3 km/h N-NW 8,0 C 10,9 C 21,7 km/h
31.05.2010 11:00 10,8 C 82 % 1008,0 hPa 0,3 l/m 3,4 km/h N-NW 7,8 C 10,8 C 13,3 km/h
31.05.2010 12:00 11,8 C 79 % 1007,7 hPa 0,3 l/m 5,0 km/h W-SW 8,2 C 11,8 C 15,7 km/h
31.05.2010 13:00 11,9 C 72 % 1007,9 hPa 0,0 l/m 4,3 km/h NW 7,0 C 11,9 C 17,7 km/h
31.05.2010 14:00 12,3 C 71 % 1007,8 hPa 0,0 l/m 1,3 km/h NW 7,2 C 12,3 C 4,8 km/h
31.05.2010 15:00 12,7 C 67 % 1007,6 hPa 0,0 l/m 6,1 km/h S 6,8 C 12,4 C 16,6 km/h
31.05.2010 16:00 13,1 C 66 % 1007,7 hPa 0,0 l/m 7,0 km/h NW 6,9 C 12,8 C 20,9 km/h
31.05.2010 17:00 13,2 C 66 % 1007,3 hPa 0,0 l/m 6,1 km/h S 6,9 C 13,1 C 22,1 km/h
31.05.2010 18:00 13,2 C 67 % 1007,5 hPa 0,0 l/m 5,4 km/h NW 7,2 C 13,2 C 19,7 km/h
31.05.2010 19:00 12,6 C 68 % 1007,8 hPa 0,0 l/m 5,1 km/h W 6,7 C 12,6 C 17,7 km/h
31.05.2010 20:00 12,3 C 68 % 1007,7 hPa 0,0 l/m 5,6 km/h W 6,6 C 12,3 C 19,7 km/h
31.05.2010 21:00 12,0 C 70 % 1008,0 hPa 0,0 l/m 5,6 km/h W 6,7 C 12,0 C 21,3 km/h
31.05.2010 22:00 11,8 C 71 % 1008,6 hPa 0,0 l/m 5,4 km/h NW 6,7 C 11,8 C 20,9 km/h
31.05.2010 23:00 11,9 C 73 % 1008,7 hPa 0,0 l/m 5,5 km/h N-NW 7,2 C 11,9 C 19,7 km/h
01.06.2010 00:00 11,9 C 75 % 1008,4 hPa 0,0 l/m 5,2 km/h W-SW 7,6 C 11,9 C 21,3 km/h
01.06.2010 01:00 11,9 C 76 % 1008,0 hPa 0,0 l/m 5,3 km/h NW 7,8 C 11,9 C 20,9 km/h
01.06.2010 02:00 12,0 C 77 % 1007,6 hPa 0,0 l/m 6,4 km/h S-SW 8,1 C 11,8 C 19,3 km/h
01.06.2010 03:00 11,8 C 78 % 1007,2 hPa 0,0 l/m 5,9 km/h NW 8,1 C 11,7 C 19,7 km/h
01.06.2010 04:00 11,8 C 79 % 1006,6 hPa 0,0 l/m 5,6 km/h N-NO 8,2 C 11,8 C 21,7 km/h
01.06.2010 05:00 11,2 C 83 % 1006,7 hPa 0,0 l/m 6,1 km/h N-NW 8,5 C 11,1 C 16,9 km/h
01.06.2010 06:00 11,1 C 85 % 1006,6 hPa 0,0 l/m 6,2 km/h NW 8,7 C 11,0 C 20,9 km/h
01.06.2010 07:00 11,3 C 85 % 1006,4 hPa 0,0 l/m 6,7 km/h NW 8,9 C 10,9 C 19,3 km/h
01.06.2010 08:00 11,6 C 85 % 1006,5 hPa 0,0 l/m 8,5 km/h NW 9,1 C 10,2 C 22,9 km/h
01.06.2010 09:00 11,9 C 79 % 1007,6 hPa 0,0 l/m 10,1 km/h N-NW 8,5 C 9,7 C 23,3 km/h
01.06.2010 10:00 12,7 C 74 % 1007,9 hPa 0,0 l/m 8,7 km/h N-NW 8,2 C 11,3 C 22,1 km/h
01.06.2010 11:00 13,3 C 71 % 1007,9 hPa 0,0 l/m 11,8 km/h N-NO 8,2 C 10,5 C 27,4 km/h
01.06.2010 12:00 13,6 C 71 % 1008,2 hPa 0,0 l/m 11,9 km/h N-NW 8,5 C 10,8 C 29,0 km/h
01.06.2010 13:00 13,4 C 76 % 1007,9 hPa 0,0 l/m 6,8 km/h N-NW 9,3 C 13,0 C 17,3 km/h
01.06.2010 14:00 13,5 C 77 % 1007,7 hPa 0,0 l/m 7,3 km/h NW 9,5 C 12,9 C 20,9 km/h
01.06.2010 15:00 13,3 C 72 % 1008,1 hPa 0,0 l/m 8,9 km/h N-NW 8,3 C 11,9 C 20,5 km/h
01.06.2010 16:00 13,3 C 70 % 1008,1 hPa 0,0 l/m 9,1 km/h NW 8,0 C 11,7 C 22,5 km/h
01.06.2010 17:00 13,3 C 72 % 1008,3 hPa 0,0 l/m 7,9 km/h NW 8,5 C 12,4 C 19,3 km/h
01.06.2010 18:00 12,9 C 78 % 1008,3 hPa 0,0 l/m 4,3 km/h W-SW 9,2 C 12,9 C 11,7 km/h
01.06.2010 19:00 12,3 C 81 % 1008,4 hPa 0,3 l/m 5,0 km/h NW 9,2 C 12,3 C 12,9 km/h
01.06.2010 20:00 11,8 C 84 % 1008,2 hPa 0,3 l/m 5,7 km/h NW 9,1 C 11,7 C 16,9 km/h
01.06.2010 21:00 11,3 C 87 % 1008,4 hPa 0,3 l/m 3,8 km/h N-NW 9,2 C 11,3 C 9,6 km/h
01.06.2010 22:00 11,2 C 87 % 1008,3 hPa 0,5 l/m 4,4 km/h NW 9,1 C 11,2 C 12,9 km/h
01.06.2010 23:00 11,2 C 88 % 1008,5 hPa 0,5 l/m 3,8 km/h N-NW 9,2 C 11,2 C 8,9 km/h
02.06.2010 00:00 11,2 C 88 % 1008,3 hPa 0,0 l/m 4,5 km/h N-NW 9,3 C 11,2 C 13,7 km/h
02.06.2010 01:00 11,2 C 88 % 1008,0 hPa 1,0 l/m 4,4 km/h N 9,3 C 11,2 C 10,5 km/h
02.06.2010 02:00 11,0 C 89 % 1007,7 hPa 2,3 l/m 3,1 km/h NW 9,3 C 11,0 C 9,3 km/h
02.06.2010 03:00 10,8 C 89 % 1007,2 hPa 1,3 l/m 4,1 km/h N-NW 9,1 C 10,8 C 12,5 km/h
02.06.2010 04:00 10,6 C 89 % 1006,7 hPa 1,6 l/m 4,5 km/h N-NW 8,9 C 10,6 C 11,7 km/h
02.06.2010 05:00 10,7 C 90 % 1006,3 hPa 1,6 l/m 4,6 km/h NW 9,1 C 10,7 C 13,3 km/h
02.06.2010 06:00 10,7 C 90 % 1006,3 hPa 1,6 l/m 4,1 km/h NW 9,1 C 10,7 C 10,5 km/h
02.06.2010 07:00 10,7 C 90 % 1006,4 hPa 2,9 l/m 3,3 km/h W 9,1 C 10,7 C 8,1 km/h
02.06.2010 08:00 10,7 C 90 % 1006,3 hPa 3,4 l/m 3,8 km/h NW 9,1 C 10,7 C 9,3 km/h
02.06.2010 09:00 10,7 C 90 % 1006,3 hPa 1,8 l/m 3,5 km/h N-NW 9,1 C 10,7 C 8,0 km/h
02.06.2010 10:00 10,9 C 91 % 1006,0 hPa 4,2 l/m 2,9 km/h N-NW 9,4 C 10,9 C 9,1 km/h
02.06.2010 11:00 11,0 C 90 % 1005,9 hPa 0,5 l/m 6,0 km/h N-NW 9,5 C 11,0 C 16,5 km/h
02.06.2010 12:00 11,5 C 90 % 1005,7 hPa 0,0 l/m 5,9 km/h N-NW 9,8 C 11,2 C 17,3 km/h
02.06.2010 13:00 12,1 C 87 % 1005,9 hPa 0,0 l/m 6,5 km/h N-NO 10,0 C 11,7 C 19,3 km/h
02.06.2010 14:00 12,6 C 85 % 1006,1 hPa 0,0 l/m 6,7 km/h N-NW 10,0 C 12,2 C 16,9 km/h
02.06.2010 15:00 12,7 C 85 % 1006,2 hPa 0,0 l/m 4,0 km/h N-NW 10,2 C 12,7 C 12,9 km/h
02.06.2010 16:00 12,9 C 86 % 1006,2 hPa 0,5 l/m 3,7 km/h NW 10,6 C 12,9 C 13,7 km/h
02.06.2010 17:00 12,5 C 87 % 1006,3 hPa 0,3 l/m 3,7 km/h N-NO 10,4 C 12,5 C 13,7 km/h
02.06.2010 18:00 12,1 C 87 % 1006,3 hPa 0,3 l/m 2,4 km/h SO 10,0 C 12,1 C 12,1 km/h
02.06.2010 19:00 12,0 C 88 % 1006,6 hPa 0,0 l/m 2,0 km/h S-SO 10,1 C 12,0 C 9,6 km/h
02.06.2010 20:00 11,9 C 89 % 1006,8 hPa 0,0 l/m 1,6 km/h NW 10,1 C 11,9 C 6,4 km/h
02.06.2010 21:00 11,9 C 89 % 1007,3 hPa 0,0 l/m 2,4 km/h N-NW 10,1 C 11,9 C 6,4 km/h
02.06.2010 22:00 11,9 C 89 % 1008,0 hPa 0,0 l/m 0,9 km/h N 10,2 C 11,9 C 4,0 km/h
02.06.2010 23:00 11,8 C 90 % 1007,9 hPa 0,0 l/m 0,1 km/h N 10,1 C 11,8 C 2,0 km/h
03.06.2010 00:00 11,6 C 90 % 1008,3 hPa 0,0 l/m 0,3 km/h N 10,0 C 11,6 C 2,4 km/h
03.06.2010 01:00 11,2 C 90 % 1008,6 hPa 0,0 l/m 0,0 km/h N 9,5 C 11,2 C 0,0 km/h
03.06.2010 02:00 10,9 C 90 % 1008,9 hPa 0,0 l/m 0,1 km/h N 9,2 C 10,9 C 1,6 km/h
03.06.2010 03:00 11,4 C 90 % 1009,0 hPa 0,0 l/m 0,4 km/h N 9,8 C 11,4 C 4,0 km/h
03.06.2010 04:00 11,6 C 90 % 1009,2 hPa 0,0 l/m 0,0 km/h N 10,0 C 11,6 C 1,6 km/h
03.06.2010 05:00 11,4 C 90 % 1009,7 hPa 0,0 l/m 0,8 km/h SW 9,8 C 11,4 C 4,4 km/h
03.06.2010 06:00 11,8 C 90 % 1010,4 hPa 0,0 l/m 0,2 km/h N 10,2 C 11,8 C 2,8 km/h
03.06.2010 07:00 12,4 C 90 % 1010,7 hPa 0,0 l/m 2,0 km/h NW 10,9 C 12,4 C 6,8 km/h
03.06.2010 08:00 13,3 C 88 % 1010,8 hPa 0,0 l/m 4,0 km/h NW 11,3 C 13,3 C 13,3 km/h
03.06.2010 09:00 14,5 C 83 % 1011,2 hPa 0,0 l/m 2,8 km/h N-NW 11,5 C 14,5 C 9,7 km/h
03.06.2010 10:00 15,6 C 78 % 1011,4 hPa 0,0 l/m 5,7 km/h N-NW 11,6 C 15,5 C 15,7 km/h
03.06.2010 11:00 16,3 C 75 % 1011,6 hPa 0,3 l/m 4,1 km/h SW 11,9 C 16,3 C 14,9 km/h
03.06.2010 12:00 17,4 C 72 % 1011,7 hPa 0,0 l/m 3,8 km/h SO 12,2 C 17,4 C 10,9 km/h
03.06.2010 13:00 18,9 C 68 % 1011,5 hPa 0,0 l/m 4,9 km/h N-NW 12,8 C 18,9 C 13,3 km/h
03.06.2010 14:00 19,0 C 68 % 1011,3 hPa 0,0 l/m 5,7 km/h N-NW 12,8 C 19,0 C 18,1 km/h
03.06.2010 15:00 17,7 C 73 % 1011,5 hPa 0,0 l/m 6,0 km/h N-NW 12,9 C 17,6 C 17,7 km/h
03.06.2010 16:00 17,0 C 74 % 1011,7 hPa 0,0 l/m 6,9 km/h NW 12,2 C 16,4 C 16,1 km/h
03.06.2010 17:00 16,6 C 76 % 1011,7 hPa 0,0 l/m 2,8 km/h O-SO 12,4 C 16,6 C 10,1 km/h
03.06.2010 18:00 15,9 C 81 % 1011,8 hPa 0,3 l/m 3,5 km/h S-SO 12,5 C 15,9 C 12,9 km/h
03.06.2010 19:00 15,7 C 81 % 1011,7 hPa 0,0 l/m 4,1 km/h N-NW 12,5 C 15,7 C 12,9 km/h
03.06.2010 20:00 15,3 C 82 % 1011,7 hPa 0,0 l/m 4,6 km/h N-NW 12,3 C 15,3 C 18,1 km/h
03.06.2010 21:00 15,4 C 82 % 1011,8 hPa 0,0 l/m 4,1 km/h N-NW 12,3 C 15,4 C 15,7 km/h
03.06.2010 22:00 15,3 C 82 % 1011,8 hPa 0,0 l/m 5,1 km/h W-SW 12,3 C 15,3 C 14,9 km/h
03.06.2010 23:00 15,0 C 84 % 1011,4 hPa 0,0 l/m 4,3 km/h W-NW 12,2 C 15,0 C 15,7 km/h
04.06.2010 00:00 14,9 C 83 % 1011,3 hPa 0,0 l/m 4,9 km/h W-NW 12,1 C 14,9 C 17,3 km/h
04.06.2010 01:00 14,9 C 83 % 1010,8 hPa 0,0 l/m 5,6 km/h NW 12,0 C 14,7 C 20,5 km/h
04.06.2010 02:00 14,8 C 83 % 1010,8 hPa 0,0 l/m 5,6 km/h S-SW 12,0 C 14,9 C 20,9 km/h
04.06.2010 03:00 14,9 C 83 % 1011,0 hPa 0,0 l/m 4,8 km/h NW 11,9 C 14,9 C 20,5 km/h
04.06.2010 04:00 14,9 C 82 % 1011,0 hPa 0,0 l/m 5,4 km/h N-NW 11,9 C 14,9 C 18,5 km/h
04.06.2010 05:00 14,6 C 85 % 1011,7 hPa 0,5 l/m 5,4 km/h W 12,0 C 14,5 C 17,3 km/h
04.06.2010 06:00 13,9 C 87 % 1012,6 hPa 5,5 l/m 5,6 km/h N-NW 11,8 C 13,9 C 14,5 km/h
04.06.2010 07:00 13,6 C 88 % 1013,0 hPa 0,0 l/m 6,2 km/h N-NW 11,6 C 13,2 C 21,7 km/h
04.06.2010 08:00 13,7 C 85 % 1013,8 hPa 0,0 l/m 7,0 km/h W 11,2 C 13,3 C 22,1 km/h
04.06.2010 09:00 13,9 C 81 % 1014,3 hPa 0,0 l/m 7,5 km/h N-NO 10,7 C 13,3 C 21,3 km/h
04.06.2010 10:00 14,3 C 79 % 1015,0 hPa 0,0 l/m 7,8 km/h NW 10,7 C 13,5 C 22,1 km/h
04.06.2010 11:00 14,5 C 75 % 1015,7 hPa 0,0 l/m 6,7 km/h NW 10,1 C 14,3 C 19,3 km/h
04.06.2010 12:00 15,9 C 71 % 1015,8 hPa 0,0 l/m 8,5 km/h NW 10,7 C 14,8 C 27,8 km/h
04.06.2010 13:00 17,5 C 68 % 1016,0 hPa 0,0 l/m 7,4 km/h N-NW 11,6 C 17,0 C 21,7 km/h
04.06.2010 14:00 19,2 C 65 % 1016,2 hPa 0,0 l/m 9,7 km/h NO 12,4 C 17,9 C 25,0 km/h
04.06.2010 15:00 20,0 C 61 % 1016,2 hPa 0,0 l/m 9,2 km/h N 12,3 C 18,9 C 20,9 km/h
04.06.2010 16:00 20,7 C 54 % 1016,2 hPa 0,0 l/m 9,1 km/h NW 11,1 C 19,7 C 21,3 km/h
04.06.2010 17:00 20,8 C 56 % 1016,5 hPa 0,0 l/m 7,1 km/h NW 11,7 C 20,5 C 18,5 km/h
04.06.2010 18:00 20,7 C 55 % 1016,8 hPa 0,0 l/m 6,6 km/h N 11,3 C 20,4 C 15,7 km/h
04.06.2010 19:00 20,4 C 56 % 1017,2 hPa 0,0 l/m 3,9 km/h NW 11,3 C 20,4 C 9,6 km/h
04.06.2010 20:00 19,0 C 60 % 1017,7 hPa 0,0 l/m 1,1 km/h N 11,0 C 19,0 C 3,6 km/h
04.06.2010 21:00 16,6 C 70 % 1018,7 hPa 0,0 l/m 0,0 km/h N 11,0 C 16,6 C 0,4 km/h
04.06.2010 22:00 13,9 C 80 % 1019,5 hPa 0,0 l/m 0,0 km/h N 10,5 C 13,9 C 0,0 km/h
04.06.2010 23:00 13,1 C 83 % 1020,0 hPa 0,0 l/m 0,0 km/h N 10,3 C 13,1 C 0,0 km/h
05.06.2010 00:00 13,3 C 81 % 1020,1 hPa 0,0 l/m 0,0 km/h N 10,0 C 13,3 C 0,4 km/h
05.06.2010 01:00 13,7 C 79 % 1020,2 hPa 0,0 l/m 0,3 km/h N 10,1 C 13,7 C 2,0 km/h
05.06.2010 02:00 13,1 C 80 % 1020,4 hPa 0,0 l/m 0,0 km/h N 9,7 C 13,1 C 0,8 km/h
05.06.2010 03:00 13,4 C 79 % 1020,6 hPa 0,0 l/m 0,5 km/h S 9,8 C 13,4 C 3,6 km/h
05.06.2010 04:00 13,4 C 78 % 1020,6 hPa 0,0 l/m 0,4 km/h W-SW 9,6 C 13,4 C 4,0 km/h
05.06.2010 05:00 13,1 C 79 % 1020,8 hPa 0,0 l/m 0,8 km/h N 9,5 C 13,1 C 5,6 km/h
05.06.2010 06:00 13,8 C 78 % 1021,3 hPa 0,0 l/m 1,8 km/h SW 10,0 C 13,8 C 8,9 km/h
05.06.2010 07:00 15,3 C 75 % 1021,4 hPa 0,0 l/m 2,0 km/h S-SW 10,8 C 15,3 C 7,2 km/h
05.06.2010 08:00 17,0 C 70 % 1021,6 hPa 0,0 l/m 1,4 km/h N-NW 11,4 C 17,0 C 5,6 km/h
05.06.2010 09:00 18,4 C 66 % 1021,6 hPa 0,0 l/m 1,9 km/h N-NW 11,9 C 18,4 C 5,6 km/h
05.06.2010 10:00 19,8 C 60 % 1021,5 hPa 0,0 l/m 2,5 km/h O-NO 11,7 C 19,8 C 7,6 km/h
05.06.2010 11:00 21,0 C 56 % 1021,2 hPa 0,0 l/m 1,2 km/h W 11,8 C 21,0 C 6,4 km/h
05.06.2010 12:00 22,0 C 50 % 1020,9 hPa 0,0 l/m 2,0 km/h O-NO 11,0 C 22,0 C 6,4 km/h
05.06.2010 13:00 22,4 C 47 % 1020,6 hPa 0,0 l/m 2,9 km/h NO 10,4 C 22,4 C 8,4 km/h
05.06.2010 14:00 22,8 C 49 % 1020,2 hPa 0,0 l/m 2,1 km/h NO 11,6 C 22,8 C 6,4 km/h
05.06.2010 15:00 22,8 C 51 % 1019,8 hPa 0,0 l/m 2,0 km/h O 12,0 C 22,8 C 5,2 km/h
05.06.2010 16:00 22,9 C 51 % 1019,5 hPa 0,0 l/m 3,0 km/h O 12,2 C 22,9 C 6,4 km/h
05.06.2010 17:00 22,8 C 49 % 1019,4 hPa 0,0 l/m 2,5 km/h O-SO 11,5 C 22,8 C 5,2 km/h
05.06.2010 18:00 22,5 C 50 % 1019,0 hPa 0,0 l/m 1,3 km/h O-SO 11,4 C 22,5 C 4,4 km/h
05.06.2010 19:00 22,0 C 53 % 1018,9 hPa 0,0 l/m 0,3 km/h N 12,0 C 22,0 C 2,4 km/h
05.06.2010 20:00 20,5 C 62 % 1018,8 hPa 0,0 l/m 0,0 km/h N 12,8 C 20,5 C 0,0 km/h
05.06.2010 21:00 17,6 C 71 % 1018,9 hPa 0,0 l/m 0,0 km/h N 12,4 C 17,6 C 0,0 km/h
05.06.2010 22:00 15,8 C 76 % 1018,9 hPa 0,0 l/m 0,0 km/h N 11,5 C 15,8 C 0,0 km/h
05.06.2010 23:00 14,5 C 82 % 1018,8 hPa 0,0 l/m 0,0 km/h N 11,3 C 14,5 C 0,0 km/h
06.06.2010 00:00 13,4 C 84 % 1018,7 hPa 0,0 l/m 0,0 km/h N 10,8 C 13,4 C 0,0 km/h
06.06.2010 01:00 12,6 C 87 % 1018,4 hPa 0,0 l/m 0,0 km/h N 10,4 C 12,6 C 0,0 km/h
06.06.2010 02:00 11,9 C 88 % 1018,2 hPa 0,0 l/m 0,0 km/h N 9,8 C 11,9 C 0,0 km/h
06.06.2010 03:00 11,3 C 88 % 1017,9 hPa 0,0 l/m 0,0 km/h N 9,4 C 11,3 C 0,0 km/h
06.06.2010 04:00 10,8 C 89 % 1017,4 hPa 0,0 l/m 0,0 km/h N 9,1 C 10,8 C 0,0 km/h
06.06.2010 05:00 10,6 C 89 % 1017,3 hPa 0,0 l/m 0,0 km/h N 8,9 C 10,6 C 0,4 km/h
06.06.2010 06:00 11,4 C 90 % 1017,3 hPa 0,0 l/m 0,0 km/h N 9,8 C 11,4 C 0,0 km/h
06.06.2010 07:00 13,2 C 91 % 1017,2 hPa 0,0 l/m 0,0 km/h N 11,8 C 13,2 C 1,2 km/h
06.06.2010 08:00 15,6 C 88 % 1017,1 hPa 0,0 l/m 0,2 km/h N 13,7 C 15,6 C 2,0 km/h
06.06.2010 09:00 18,0 C 79 % 1016,9 hPa 0,0 l/m 0,8 km/h N 14,2 C 18,0 C 3,6 km/h
06.06.2010 10:00 20,1 C 73 % 1016,3 hPa 0,0 l/m 0,6 km/h N 15,1 C 20,1 C 3,6 km/h
06.06.2010 11:00 23,3 C 64 % 1015,7 hPa 0,0 l/m 0,9 km/h O 16,1 C 23,3 C 5,2 km/h
06.06.2010 12:00 24,8 C 54 % 1015,2 hPa 0,0 l/m 2,0 km/h O 14,8 C 24,8 C 7,2 km/h
06.06.2010 13:00 25,3 C 51 % 1014,8 hPa 0,0 l/m 2,2 km/h O-NO 14,5 C 25,3 C 7,2 km/h
06.06.2010 14:00 26,0 C 55 % 1014,2 hPa 0,0 l/m 2,1 km/h O-NO 16,2 C 26,0 C 8,9 km/h
06.06.2010 15:00 25,9 C 56 % 1013,7 hPa 0,0 l/m 2,5 km/h O 16,5 C 25,9 C 7,2 km/h
06.06.2010 16:00 25,8 C 55 % 1013,3 hPa 0,0 l/m 3,6 km/h O 16,0 C 25,8 C 9,7 km/h
06.06.2010 17:00 25,6 C 56 % 1012,8 hPa 0,0 l/m 2,8 km/h O 16,3 C 25,6 C 7,6 km/h
06.06.2010 18:00 25,3 C 59 % 1012,2 hPa 0,0 l/m 1,7 km/h O 16,7 C 25,3 C 7,2 km/h
06.06.2010 19:00 24,6 C 61 % 1011,7 hPa 0,0 l/m 0,7 km/h N 16,6 C 24,6 C 4,8 km/h
06.06.2010 20:00 23,6 C 64 % 1011,4 hPa 0,0 l/m 0,3 km/h N 16,2 C 23,6 C 4,0 km/h
06.06.2010 21:00 22,2 C 68 % 1011,3 hPa 0,0 l/m 0,3 km/h N 15,9 C 22,2 C 3,2 km/h
06.06.2010 22:00 20,7 C 72 % 1011,3 hPa 0,0 l/m 0,1 km/h N 15,4 C 20,7 C 2,8 km/h
06.06.2010 23:00 19,4 C 76 % 1011,0 hPa 0,0 l/m 0,0 km/h N 15,0 C 19,4 C 0,4 km/h
Min-Datum _ 06.06.10 05.06.10 31.05.10 - 02.06.10 - 31.05.10 01.06.10 03.06.10
_ Min-Zeit 05:15 13:15 05:00 - 23:45 - 15:45 09:00 00:15
Minimum _ 10,5 C 45 % 1003,2 hPa - 0,0 km/h - 6,4 C 9,2 C 0,0 km/h
Max-Datum _ 06.06.10 02.06.10 05.06.10 04.06.10 01.06.10 - 06.06.10 06.06.10 31.05.10
_ Max-Zeit 15:45 10:30 08:45 06:15 15:15 - 15:15 14:15 08:45
Maximum _ 26,8 C 91 % 1021,7 hPa 5,5 l/m 14,1 km/h
N-NW
- 17,0 C 26,3 C 32,2 km/h
SW
Durchschnitt _ 15,0 C 76 % 1011,7 hPa #32,8 l/m 3,8 km/h N-NW 10,5 C 14,8 C 12,0 km/h